Aérodrome :
LOGIN :

S'inscrire | Disclaimer

   EN    FR    IT 

 










Légende :    VFR   VFR Marginal   IFR   IFR Intensif   IFR Très Intensif
Visi : 
Plafond : 
>= 8 km
>= 3000ft
5 à 8 km
1000 à 3000 ft
1500m à 5 km
500 à 1000 ft
800 à 1500m
200 à 500 ft
< 800m
< 200 ft
Symboles :   Orages  Brouillard  Fortes neiges  Fortes précipitations  Vent > 20 kt
SIGMETs :   Divers  Orages  Givrage  Turbulence  Onde Orograph.  Cendres Volcan.







- Altitude de l'aérodrome : 37 ft


EHVL - Vlieland Heliport

DERNIER METAR :
  • 191001Z AUTO 24023KT 9999 FEW021 19/12 Q1011 BLU

METARs EXPIRÉS :
  • 190955Z AUTO 24021KT 9999 FEW021 19/13 Q1011 BLU
  • 190940Z AUTO 24022KT 9999 SCT022 BKN025 BKN031 19/13 Q1011 WHT
  • 190932Z AUTO 24023KT 9999 SCT022 19/13 Q1011 WHT
  • 190907Z AUTO 24023KT 9999 FEW024 SCT027 19/12 Q1011 BLU
  • 190855Z AUTO 24022KT 9999 SCT021 BKN025 BKN028 19/12 Q1010 WHT
  • 190835Z AUTO 25022KT 9999 FEW022 18/12 Q1010 BLU
  • 190825Z AUTO 24022KT 9999 SCT023 SCT026 18/12 Q1010 WHT
  • 190808Z AUTO 24023KT 9999 FEW021 SCT025 18/12 Q1010 BLU
  • 190802Z AUTO 24023KT 9999 SCT021 SCT031 18/13 Q1010 WHT
  • 190755Z AUTO 24023KT 9999 FEW022 18/12 Q1010 BLU
  • 190743Z AUTO 24024KT 9999 BKN023 BKN027 18/12 Q1010 WHT
  • 190731Z AUTO 24022KT 9999 FEW021 SCT024 18/12 Q1010 WHT
  • 190725Z AUTO 24022KT 9999 FEW022 17/12 Q1010 BLU
  • 190711Z AUTO 24021KT 9999 SCT021 SCT025 17/13 Q1010 WHT

Prévision TAF périmée.
Pas de NOTAMs connus pour ce terrain.



MET'MAP, la Météo Aéronautique d'un coup d'oeil ! - Copyright ORBIFLY Décembre 2007 - Disclaimer

ORBIFLY MET'MAP TEAM :

Programmation & Développement : Alexandra Zaïnal
Conception & Développement : Baudouin d'Aumeries
Co-Programmation & Développement : Marc-Olivier Méhu
Soutien technique & logistique : Manuel Goepfert

Contact : metmap@orbifly.com




SOURCES & CREDITS :

   NOAA